Time;durP1;ratioP1;P1;durP2;ratioP2;P2;SDS_P1;SDS_P2;PMS_P1;PMS_P2;Temp;Humidity;BMP_temperature;BMP_pressure;BME280_temperature;BME280_humidity;BME280_pressure;Samples;Min_cycle;Max_cycle;Signal;HPM_P1;HPM_P2
2022/07/26 00:00:25;;;;;;;;;;;26.20;79.80;;;;;;4971815;28;20439;-80
2022/07/26 00:02:57;;;;;;;;;;;26.20;79.70;;;;;;4957118;28;19914;-80
2022/07/26 00:05:25;;;;;;;;;;;26.20;79.60;;;;;;4955598;28;19945;-79
2022/07/26 00:08:09;;;;;;;;;;;26.10;78.50;;;;;;4972663;28;19914;-80
2022/07/26 00:10:44;;;;;;;;;;;26.20;78.30;;;;;;4964562;28;19910;-80
2022/07/26 00:13:11;;;;;;;;;;;26.30;78.50;;;;;;4958552;28;19938;-80
2022/07/26 00:15:44;;;;;;;;;;;26.20;77.90;;;;;;4957904;28;19914;-80
2022/07/26 00:18:17;;;;;;;;;;;26.30;78.00;;;;;;4953471;28;19918;-78
2022/07/26 00:20:59;;;;;;;;;;;26.40;77.90;;;;;;4972274;28;19962;-80
2022/07/26 00:26:33;;;;;;;;;;;26.40;77.40;;;;;;4963787;28;19925;-80
2022/07/26 00:29:02;;;;;;;;;;;26.40;77.70;;;;;;4954790;28;19997;-80
2022/07/26 00:31:30;;;;;;;;;;;26.20;78.30;;;;;;4956842;28;19921;-81
2022/07/26 00:33:59;;;;;;;;;;;26.10;78.80;;;;;;4950144;28;19917;-83
2022/07/26 00:36:26;;;;;;;;;;;26.10;79.10;;;;;;4953642;28;20363;-81
2022/07/26 00:38:54;;;;;;;;;;;26.10;79.70;;;;;;4979705;28;19961;-80
2022/07/26 00:41:21;;;;;;;;;;;26.10;79.50;;;;;;4953890;28;19922;-79
2022/07/26 00:43:54;;;;;;;;;;;26.10;79.30;;;;;;4962964;28;19924;-79
2022/07/26 00:46:20;;;;;;;;;;;26.20;79.00;;;;;;4947674;28;19918;-79
2022/07/26 00:48:48;;;;;;;;;;;26.20;78.50;;;;;;4974949;28;20009;-79
2022/07/26 00:51:18;;;;;;;;;;;26.20;78.80;;;;;;4956908;28;19922;-80
2022/07/26 00:53:45;;;;;;;;;;;26.10;78.50;;;;;;4955158;28;19918;-80
2022/07/26 00:56:13;;;;;;;;;;;26.10;79.20;;;;;;4970301;28;19918;-79
2022/07/26 01:01:42;;;;;;;;;;;26.50;76.80;;;;;;4976136;28;19984;-87
2022/07/26 03:18:46;;;;;;;;;;;21.90;99.90;;;;;;6029481;23;19916;-78
2022/07/26 03:21:11;;;;;;;;;;;21.90;99.90;;;;;;4952916;28;19918;-80
2022/07/26 03:23:37;;;;;;;;;;;21.90;99.90;;;;;;4972257;28;19958;-79
2022/07/26 03:26:03;;;;;;;;;;;22.00;99.90;;;;;;4944860;28;19914;-78
2022/07/26 03:28:32;;;;;;;;;;;22.00;99.90;;;;;;4961917;28;19911;-78
2022/07/26 03:31:01;;;;;;;;;;;22.10;99.90;;;;;;4956402;28;19918;-81
2022/07/26 03:33:28;;;;;;;;;;;22.10;99.90;;;;;;4951210;28;20616;-81
2022/07/26 03:36:04;;;;;;;;;;;22.20;99.90;;;;;;4976150;28;19914;-82
2022/07/26 03:38:32;;;;;;;;;;;22.10;99.90;;;;;;4954905;28;19923;-80
2022/07/26 03:40:59;;;;;;;;;;;22.20;99.90;;;;;;4954129;28;19910;-81
2022/07/26 03:43:26;;;;;;;;;;;22.20;99.90;;;;;;4955313;28;19917;-80
2022/07/26 03:45:53;;;;;;;;;;;22.30;99.90;;;;;;4970512;28;19962;-80
2022/07/26 03:48:20;;;;;;;;;;;22.30;99.90;;;;;;4949492;28;20005;-81
2022/07/26 03:50:54;;;;;;;;;;;22.30;99.90;;;;;;4966106;28;19910;-79
2022/07/26 03:53:23;;;;;;;;;;;22.30;99.90;;;;;;4948290;28;19965;-79
2022/07/26 03:58:41;;;;;;;;;;;22.30;99.90;;;;;;4949590;28;19920;-79
2022/07/26 04:01:27;;;;;;;;;;;22.20;99.90;;;;;;4947336;28;19917;-80
2022/07/26 04:03:59;;;;;;;;;;;22.10;99.90;;;;;;4966932;28;19918;-80
2022/07/26 04:06:26;;;;;;;;;;;22.00;99.90;;;;;;4964935;28;19911;-80
2022/07/26 04:08:53;;;;;;;;;;;22.00;99.90;;;;;;4948318;28;20017;-79
2022/07/26 04:11:19;;;;;;;;;;;22.00;99.90;;;;;;4951437;28;20652;-79
2022/07/26 04:13:54;;;;;;;;;;;22.00;99.90;;;;;;4967565;28;19911;-81
2022/07/26 04:16:31;;;;;;;;;;;22.10;99.90;;;;;;4957977;28;19914;-81
2022/07/26 04:18:58;;;;;;;;;;;22.10;99.90;;;;;;4949514;28;19922;-80
2022/07/26 04:21:32;;;;;;;;;;;22.10;99.90;;;;;;4945688;28;19981;-78
2022/07/26 04:23:58;;;;;;;;;;;22.20;99.90;;;;;;4961334;28;19911;-78
2022/07/26 04:26:25;;;;;;;;;;;22.10;99.90;;;;;;4948430;28;19986;-79
2022/07/26 04:28:50;;;;;;;;;;;22.10;99.90;;;;;;4940547;28;19958;-80
2022/07/26 04:31:18;;;;;;;;;;;22.00;99.90;;;;;;4961522;28;19918;-78
2022/07/26 04:33:45;;;;;;;;;;;22.00;99.90;;;;;;4947297;28;19918;-79
2022/07/26 04:36:18;;;;;;;;;;;22.10;99.90;;;;;;4944308;28;19910;-78
2022/07/26 04:38:45;;;;;;;;;;;22.10;99.90;;;;;;4962951;28;19926;-79
2022/07/26 04:41:12;;;;;;;;;;;22.00;99.90;;;;;;4946270;28;19962;-79
2022/07/26 04:43:37;;;;;;;;;;;22.10;99.90;;;;;;4954293;28;19911;-81
2022/07/26 04:46:05;;;;;;;;;;;22.10;99.90;;;;;;4958013;28;19919;-81
2022/07/26 04:48:32;;;;;;;;;;;22.10;99.90;;;;;;4950027;28;19917;-81
2022/07/26 04:51:00;;;;;;;;;;;22.10;99.90;;;;;;4962193;28;19914;-80
2022/07/26 04:53:27;;;;;;;;;;;22.10;99.90;;;;;;4948553;28;20010;-79
2022/07/26 04:55:53;;;;;;;;;;;22.10;99.90;;;;;;4966306;28;19978;-78
2022/07/26 04:58:19;;;;;;;;;;;22.10;99.90;;;;;;4953137;28;20443;-78
2022/07/26 05:00:48;;;;;;;;;;;22.10;99.90;;;;;;4949210;28;19918;-76
2022/07/26 05:03:24;;;;;;;;;;;22.10;99.90;;;;;;4947386;28;19941;-79
2022/07/26 05:05:51;;;;;;;;;;;22.10;99.90;;;;;;4948607;28;19959;-77
2022/07/26 05:08:27;;;;;;;;;;;22.10;99.90;;;;;;4961767;28;19910;-79
2022/07/26 05:11:04;;;;;;;;;;;22.10;99.90;;;;;;4952300;28;19919;-79
2022/07/26 05:13:31;;;;;;;;;;;22.00;99.90;;;;;;4949485;28;20310;-79
2022/07/26 05:15:58;;;;;;;;;;;22.00;99.90;;;;;;4962225;28;19918;-79
2022/07/26 05:18:26;;;;;;;;;;;22.00;99.90;;;;;;4965310;28;19922;-79
2022/07/26 05:21:03;;;;;;;;;;;21.90;99.90;;;;;;4952691;28;19922;-79
2022/07/26 05:23:31;;;;;;;;;;;21.90;99.90;;;;;;4951357;28;19993;-80
2022/07/26 05:26:01;;;;;;;;;;;21.90;99.90;;;;;;4965369;28;19915;-78
2022/07/26 05:28:29;;;;;;;;;;;21.80;99.90;;;;;;4967785;28;19973;-78
2022/07/26 05:31:03;;;;;;;;;;;21.80;99.90;;;;;;4946425;28;20196;-78
2022/07/26 05:33:29;;;;;;;;;;;21.90;99.90;;;;;;4948095;28;19910;-79
2022/07/26 05:36:01;;;;;;;;;;;21.90;99.90;;;;;;4946329;28;19917;-78
2022/07/26 05:38:27;;;;;;;;;;;21.90;99.90;;;;;;4946935;28;19969;-78
2022/07/26 05:40:55;;;;;;;;;;;21.90;99.90;;;;;;4951689;28;19986;-78
2022/07/26 05:43:20;;;;;;;;;;;21.90;99.90;;;;;;4945390;28;19998;-79
2022/07/26 05:45:54;;;;;;;;;;;21.80;99.90;;;;;;4947403;28;20408;-78
2022/07/26 05:48:27;;;;;;;;;;;21.90;99.90;;;;;;4963551;28;19910;-79
2022/07/26 05:50:54;;;;;;;;;;;21.80;99.90;;;;;;4950602;28;20378;-79
2022/07/26 05:53:20;;;;;;;;;;;21.80;99.90;;;;;;4945222;28;20327;-78
2022/07/26 05:55:46;;;;;;;;;;;21.80;99.90;;;;;;4949631;28;20360;-79
2022/07/26 05:58:12;;;;;;;;;;;21.70;99.90;;;;;;4950195;28;19946;-79
2022/07/26 06:00:39;;;;;;;;;;;21.70;99.90;;;;;;4960573;28;19953;-78
2022/07/26 06:03:21;;;;;;;;;;;21.70;99.90;;;;;;4948773;28;19915;-80
2022/07/26 06:05:52;;;;;;;;;;;21.70;99.90;;;;;;4983754;28;19956;-82
2022/07/26 06:08:19;;;;;;;;;;;21.70;99.90;;;;;;4972750;28;19910;-81
2022/07/26 06:10:46;;;;;;;;;;;21.60;99.90;;;;;;4966423;28;19911;-83
2022/07/26 06:13:17;;;;;;;;;;;21.50;99.90;;;;;;4953861;28;19949;-80
2022/07/26 06:15:46;;;;;;;;;;;21.50;99.90;;;;;;4954999;28;19980;-82
2022/07/26 06:18:12;;;;;;;;;;;21.50;99.90;;;;;;4958436;28;19923;-81
2022/07/26 06:20:43;;;;;;;;;;;21.40;99.90;;;;;;4957186;28;19926;-81
2022/07/26 06:23:10;;;;;;;;;;;21.40;99.90;;;;;;4964460;28;19914;-81
2022/07/26 06:25:38;;;;;;;;;;;21.40;99.90;;;;;;4956969;28;19910;-81
2022/07/26 06:28:07;;;;;;;;;;;21.40;99.90;;;;;;4962102;28;19925;-80
2022/07/26 06:30:42;;;;;;;;;;;21.50;99.90;;;;;;4949878;28;20054;-80
2022/07/26 06:33:08;;;;;;;;;;;21.50;99.90;;;;;;4949767;28;20312;-80
2022/07/26 06:35:59;;;;;;;;;;;21.50;99.90;;;;;;4968907;28;19915;-81
2022/07/26 06:38:26;;;;;;;;;;;21.60;99.90;;;;;;4955852;28;20541;-80
2022/07/26 06:41:03;;;;;;;;;;;21.70;99.90;;;;;;4976477;28;20392;-81
2022/07/26 06:43:29;;;;;;;;;;;21.70;99.90;;;;;;4962665;28;19944;-82
2022/07/26 06:45:56;;;;;;;;;;;21.70;99.90;;;;;;4959706;28;19911;-80
2022/07/26 06:48:34;;;;;;;;;;;21.70;99.90;;;;;;4972102;28;19964;-80
2022/07/26 06:51:01;;;;;;;;;;;21.70;99.90;;;;;;4947022;28;19911;-80
2022/07/26 06:53:29;;;;;;;;;;;21.60;99.90;;;;;;4946039;28;19914;-80
2022/07/26 06:56:01;;;;;;;;;;;21.70;99.90;;;;;;4965656;28;20013;-80
2022/07/26 06:58:29;;;;;;;;;;;21.70;99.90;;;;;;4950166;28;19921;-80
2022/07/26 07:00:55;;;;;;;;;;;21.70;99.90;;;;;;4951938;28;19918;-80
2022/07/26 07:03:21;;;;;;;;;;;21.80;99.90;;;;;;4968956;28;19934;-81
2022/07/26 07:05:54;;;;;;;;;;;21.80;99.90;;;;;;4978615;28;19910;-81
2022/07/26 07:08:23;;;;;;;;;;;21.90;99.90;;;;;;4972709;28;19943;-81
2022/07/26 07:11:01;;;;;;;;;;;21.90;99.90;;;;;;4980270;28;19938;-82
2022/07/26 07:13:33;;;;;;;;;;;22.00;99.90;;;;;;4981416;28;20001;-81
2022/07/26 07:16:04;;;;;;;;;;;22.10;99.90;;;;;;4983522;28;19925;-81
2022/07/26 07:18:31;;;;;;;;;;;22.20;99.90;;;;;;4953067;28;19919;-81
2022/07/26 07:21:05;;;;;;;;;;;22.20;99.90;;;;;;4981308;28;19918;-81
2022/07/26 07:23:32;;;;;;;;;;;22.20;99.90;;;;;;4946872;28;20387;-81
2022/07/26 07:26:02;;;;;;;;;;;22.20;99.90;;;;;;4976464;28;19974;-80
2022/07/26 07:28:46;;;;;;;;;;;22.20;99.90;;;;;;4955045;28;19911;-80
2022/07/26 07:31:28;;;;;;;;;;;22.30;99.90;;;;;;4948877;28;19933;-80
2022/07/26 07:34:13;;;;;;;;;;;22.40;99.90;;;;;;4945313;28;19921;-80
2022/07/26 07:36:39;;;;;;;;;;;22.50;99.90;;;;;;4950056;28;19969;-81
2022/07/26 07:39:06;;;;;;;;;;;22.40;99.90;;;;;;4952516;28;19911;-81
2022/07/26 07:41:37;;;;;;;;;;;22.30;99.90;;;;;;4961237;28;19921;-81
2022/07/26 07:44:05;;;;;;;;;;;22.30;99.90;;;;;;4975941;28;19910;-80
2022/07/26 07:46:47;;;;;;;;;;;22.30;99.90;;;;;;4950853;28;19994;-81
2022/07/26 07:49:25;;;;;;;;;;;22.30;99.90;;;;;;4957763;28;19925;-80
2022/07/26 07:51:58;;;;;;;;;;;22.30;99.90;;;;;;4956086;28;20025;-80
2022/07/26 07:54:29;;;;;;;;;;;22.20;99.90;;;;;;4947143;28;19921;-80
2022/07/26 07:56:57;;;;;;;;;;;22.20;99.90;;;;;;4947760;28;19918;-80
2022/07/26 07:59:25;;;;;;;;;;;22.20;99.90;;;;;;4962960;28;21687;-80
2022/07/26 08:01:53;;;;;;;;;;;22.30;99.90;;;;;;4954754;28;19910;-81
2022/07/26 08:04:20;;;;;;;;;;;22.30;99.90;;;;;;4959654;28;19985;-80
2022/07/26 08:06:57;;;;;;;;;;;22.40;99.90;;;;;;4946548;28;20343;-79
2022/07/26 08:09:24;;;;;;;;;;;22.50;99.90;;;;;;4947168;28;19919;-81
2022/07/26 08:11:54;;;;;;;;;;;22.50;99.90;;;;;;4961091;28;19921;-79
2022/07/26 08:14:26;;;;;;;;;;;22.40;99.90;;;;;;4944439;28;19910;-79
2022/07/26 08:16:53;;;;;;;;;;;22.40;99.90;;;;;;4954111;28;19964;-81
2022/07/26 08:19:18;;;;;;;;;;;22.40;99.90;;;;;;4964455;28;19988;-80
2022/07/26 08:21:44;;;;;;;;;;;22.30;99.90;;;;;;4963102;28;19962;-79
2022/07/26 08:24:27;;;;;;;;;;;22.30;99.90;;;;;;4944127;28;19922;-79
2022/07/26 08:26:54;;;;;;;;;;;22.30;99.90;;;;;;4944350;28;19919;-79
2022/07/26 08:29:39;;;;;;;;;;;22.20;99.90;;;;;;4946228;28;20046;-80
2022/07/26 08:32:05;;;;;;;;;;;22.10;99.90;;;;;;4956886;28;19910;-79
2022/07/26 08:34:31;;;;;;;;;;;22.20;99.90;;;;;;4944140;28;19918;-79
2022/07/26 08:37:01;;;;;;;;;;;22.10;99.90;;;;;;4961201;28;20272;-78
2022/07/26 08:39:36;;;;;;;;;;;22.10;99.90;;;;;;4943457;28;19918;-79
2022/07/26 08:42:02;;;;;;;;;;;22.00;99.90;;;;;;4941229;28;19925;-78
2022/07/26 08:44:28;;;;;;;;;;;22.00;99.90;;;;;;4940548;28;19918;-80
2022/07/26 08:47:04;;;;;;;;;;;22.00;99.90;;;;;;4944708;28;19914;-79
2022/07/26 08:49:37;;;;;;;;;;;22.00;99.90;;;;;;4944217;28;19914;-79
2022/07/26 08:52:08;;;;;;;;;;;22.10;99.90;;;;;;4962047;28;19993;-78
2022/07/26 08:54:40;;;;;;;;;;;22.10;99.90;;;;;;4941543;28;19966;-79
2022/07/26 08:57:12;;;;;;;;;;;22.20;99.90;;;;;;4948522;28;19914;-78
2022/07/26 08:59:41;;;;;;;;;;;22.20;99.90;;;;;;4949289;28;19917;-79
2022/07/26 09:02:13;;;;;;;;;;;22.10;99.90;;;;;;4945308;28;19910;-79
2022/07/26 09:04:47;;;;;;;;;;;22.10;99.90;;;;;;4940457;28;19910;-78
2022/07/26 09:07:14;;;;;;;;;;;22.10;99.90;;;;;;4945448;28;20002;-78
2022/07/26 09:09:57;;;;;;;;;;;22.10;99.90;;;;;;4944574;28;19914;-79
2022/07/26 09:12:23;;;;;;;;;;;22.20;99.90;;;;;;4945828;28;19918;-79
2022/07/26 09:14:59;;;;;;;;;;;22.10;99.90;;;;;;4942948;28;19922;-79
2022/07/26 09:17:46;;;;;;;;;;;22.20;99.90;;;;;;4944624;28;19918;-78
2022/07/26 09:20:17;;;;;;;;;;;22.30;99.90;;;;;;4956662;28;20388;-79
2022/07/26 09:23:06;;;;;;;;;;;22.40;99.90;;;;;;4944383;28;19926;-79
2022/07/26 09:25:33;;;;;;;;;;;22.50;99.90;;;;;;4941453;28;19914;-79
2022/07/26 09:28:00;;;;;;;;;;;22.70;99.90;;;;;;4948798;28;19910;-79
2022/07/26 09:30:50;;;;;;;;;;;22.80;99.90;;;;;;4943979;28;19990;-78
2022/07/26 09:33:23;;;;;;;;;;;22.90;99.90;;;;;;4944846;28;20360;-79
2022/07/26 09:36:09;;;;;;;;;;;23.00;99.90;;;;;;4948186;28;19964;-79
2022/07/26 09:38:52;;;;;;;;;;;23.10;99.90;;;;;;4949391;28;20013;-79
2022/07/26 09:41:21;;;;;;;;;;;23.10;99.90;;;;;;4953012;28;20295;-79
2022/07/26 09:43:55;;;;;;;;;;;23.20;99.90;;;;;;4945059;28;20581;-80
2022/07/26 09:46:31;;;;;;;;;;;23.20;99.90;;;;;;4950268;28;19918;-79
2022/07/26 09:49:15;;;;;;;;;;;23.30;99.90;;;;;;4962050;28;19914;-79
2022/07/26 09:51:48;;;;;;;;;;;23.40;99.90;;;;;;4967128;28;19910;-79
2022/07/26 09:54:22;;;;;;;;;;;23.60;99.90;;;;;;4948526;28;19922;-78
2022/07/26 09:56:51;;;;;;;;;;;23.70;99.90;;;;;;4950199;28;19953;-78
2022/07/26 09:59:20;;;;;;;;;;;23.80;99.90;;;;;;4941378;28;19936;-79
2022/07/26 10:01:46;;;;;;;;;;;24.00;99.90;;;;;;4950675;28;20356;-79
2022/07/26 10:04:14;;;;;;;;;;;24.00;99.90;;;;;;4962253;28;19946;-78
2022/07/26 10:06:41;;;;;;;;;;;24.10;99.90;;;;;;4947001;28;19918;-79
2022/07/26 10:09:07;;;;;;;;;;;24.20;99.90;;;;;;4943404;28;19914;-79
2022/07/26 10:11:40;;;;;;;;;;;24.20;99.90;;;;;;4961669;28;19926;-78
2022/07/26 10:14:25;;;;;;;;;;;24.30;99.90;;;;;;4947108;28;20511;-78
2022/07/26 10:16:53;;;;;;;;;;;24.40;99.90;;;;;;4940137;28;19907;-79
2022/07/26 10:19:40;;;;;;;;;;;24.40;99.90;;;;;;4945166;28;19910;-79
2022/07/26 10:22:25;;;;;;;;;;;24.50;99.90;;;;;;4955881;28;20596;-79
2022/07/26 10:24:53;;;;;;;;;;;24.50;99.90;;;;;;4947752;28;19942;-80
2022/07/26 10:27:39;;;;;;;;;;;24.50;99.90;;;;;;4964192;28;19910;-79
2022/07/26 10:30:16;;;;;;;;;;;24.50;99.90;;;;;;4944675;28;19934;-79
2022/07/26 10:33:03;;;;;;;;;;;24.50;99.90;;;;;;4957381;28;19918;-78
2022/07/26 10:35:35;;;;;;;;;;;24.60;99.90;;;;;;4943556;28;19911;-79
2022/07/26 10:38:24;;;;;;;;;;;24.70;99.90;;;;;;4963072;28;19918;-78
2022/07/26 10:41:04;;;;;;;;;;;24.70;99.90;;;;;;4948080;28;19914;-79
2022/07/26 10:43:33;;;;;;;;;;;24.80;99.90;;;;;;4961361;28;19921;-78
2022/07/26 10:46:17;;;;;;;;;;;24.90;99.90;;;;;;4943014;28;19993;-79
2022/07/26 10:48:57;;;;;;;;;;;25.00;99.90;;;;;;4944915;28;19983;-79
2022/07/26 10:51:28;;;;;;;;;;;25.20;99.90;;;;;;4945428;28;19973;-78
2022/07/26 10:54:11;;;;;;;;;;;25.30;99.90;;;;;;4944680;28;19917;-78
2022/07/26 10:56:38;;;;;;;;;;;25.40;99.90;;;;;;4947550;28;19922;-78
2022/07/26 10:59:04;;;;;;;;;;;25.60;99.90;;;;;;4946079;28;19926;-78
2022/07/26 11:01:41;;;;;;;;;;;25.80;99.90;;;;;;4939143;28;19915;-78
2022/07/26 11:04:20;;;;;;;;;;;26.00;99.90;;;;;;4946655;28;19911;-78
2022/07/26 11:06:46;;;;;;;;;;;26.20;99.90;;;;;;4942456;28;20000;-69
2022/07/26 11:09:12;;;;;;;;;;;26.70;99.90;;;;;;4940079;28;19918;-69
2022/07/26 11:11:38;;;;;;;;;;;27.00;99.60;;;;;;4963534;28;20008;-73
2022/07/26 11:14:06;;;;;;;;;;;27.30;98.30;;;;;;4956456;28;19910;-73
2022/07/26 11:16:36;;;;;;;;;;;27.70;97.60;;;;;;4944132;28;19918;-74
2022/07/26 11:19:10;;;;;;;;;;;28.10;96.70;;;;;;4955351;28;20013;-75
2022/07/26 11:21:36;;;;;;;;;;;28.30;95.90;;;;;;4948183;28;19961;-84
2022/07/26 11:24:07;;;;;;;;;;;28.50;95.40;;;;;;4947833;28;20000;-78
2022/07/26 11:26:45;;;;;;;;;;;28.60;94.80;;;;;;4945843;28;20422;-80
2022/07/26 11:29:13;;;;;;;;;;;28.40;95.00;;;;;;4942277;28;20382;-82
2022/07/26 11:31:51;;;;;;;;;;;28.50;95.20;;;;;;4946897;28;19918;-82
2022/07/26 11:34:22;;;;;;;;;;;28.80;94.60;;;;;;4940426;28;19994;-84
2022/07/26 11:36:50;;;;;;;;;;;29.30;93.40;;;;;;4962141;28;19921;-87
2022/07/26 11:39:25;;;;;;;;;;;29.30;92.60;;;;;;4952739;28;19922;-86
2022/07/26 11:42:02;;;;;;;;;;;29.50;92.90;;;;;;4970452;28;20899;-87
2022/07/26 11:44:42;;;;;;;;;;;29.60;92.40;;;;;;4954864;28;19962;-87
2022/07/26 11:47:12;;;;;;;;;;;29.50;91.70;;;;;;4943331;28;19958;-85
2022/07/26 11:49:40;;;;;;;;;;;29.30;92.00;;;;;;4946863;28;19918;-84
2022/07/26 11:52:05;;;;;;;;;;;29.30;91.90;;;;;;4939765;28;19917;-73
2022/07/26 11:54:32;;;;;;;;;;;29.50;92.00;;;;;;4955911;28;19914;-73
2022/07/26 11:57:00;;;;;;;;;;;29.10;92.20;;;;;;4944608;28;19918;-74
2022/07/26 11:59:27;;;;;;;;;;;29.00;91.40;;;;;;4946175;28;19992;-73
2022/07/26 12:01:53;;;;;;;;;;;29.10;91.50;;;;;;4943485;28;20248;-73
2022/07/26 12:04:22;;;;;;;;;;;29.20;91.80;;;;;;4940330;28;19914;-74
2022/07/26 12:06:49;;;;;;;;;;;28.90;91.80;;;;;;4944782;28;20006;-74
2022/07/26 12:09:27;;;;;;;;;;;29.00;91.70;;;;;;4945172;28;19962;-74
2022/07/26 12:11:52;;;;;;;;;;;29.30;91.00;;;;;;4943091;28;21181;-71
2022/07/26 12:14:27;;;;;;;;;;;29.70;90.70;;;;;;4941902;28;19981;-71
2022/07/26 12:16:53;;;;;;;;;;;29.30;90.50;;;;;;4945326;28;19918;-71
2022/07/26 12:19:18;;;;;;;;;;;29.00;91.20;;;;;;4944643;28;19910;-71
2022/07/26 12:21:44;;;;;;;;;;;29.40;90.20;;;;;;4937068;28;19918;-71
2022/07/26 12:24:11;;;;;;;;;;;29.10;90.20;;;;;;4944464;28;19914;-71
2022/07/26 12:26:38;;;;;;;;;;;29.70;89.30;;;;;;4945252;28;20386;-72
2022/07/26 12:32:05;;;;;;;;;;;30.20;87.40;;;;;;4943523;28;19937;-72
2022/07/26 12:34:31;;;;;;;;;;;30.20;87.10;;;;;;4940843;28;19915;-72
2022/07/26 12:37:10;;;;;;;;;;;29.60;84.70;;;;;;4944253;28;19915;-71
2022/07/26 12:39:36;;;;;;;;;;;27.80;86.30;;;;;;4944385;28;20337;-71
2022/07/26 12:42:22;;;;;;;;;;;26.40;89.40;;;;;;4948398;28;19915;-72
2022/07/26 12:44:47;;;;;;;;;;;25.60;91.80;;;;;;4943448;28;19945;-71
2022/07/26 12:47:13;;;;;;;;;;;25.00;93.30;;;;;;4960417;28;19914;-72
2022/07/26 12:49:39;;;;;;;;;;;24.80;94.20;;;;;;4948617;28;20356;-74
2022/07/26 12:52:04;;;;;;;;;;;24.60;98.80;;;;;;4944764;28;19952;-75
2022/07/26 12:54:31;;;;;;;;;;;23.70;99.90;;;;;;4950192;28;20287;-75
2022/07/26 12:57:18;;;;;;;;;;;22.80;99.90;;;;;;4945276;28;20407;-75
2022/07/26 12:59:46;;;;;;;;;;;22.20;99.90;;;;;;4952381;28;19942;-75
2022/07/26 13:02:15;;;;;;;;;;;21.90;99.90;;;;;;4962338;28;19914;-75
2022/07/26 13:04:42;;;;;;;;;;;21.60;99.90;;;;;;4946685;28;19911;-75
2022/07/26 13:07:17;;;;;;;;;;;21.30;99.90;;;;;;4944163;28;19915;-75
2022/07/26 13:09:43;;;;;;;;;;;21.30;99.90;;;;;;4948365;28;19919;-75
2022/07/26 13:12:21;;;;;;;;;;;21.40;99.90;;;;;;4947312;28;20497;-75
2022/07/26 13:14:53;;;;;;;;;;;21.40;99.90;;;;;;4950198;28;19910;-75
2022/07/26 13:17:24;;;;;;;;;;;21.40;99.90;;;;;;4950179;28;19921;-76
2022/07/26 13:19:52;;;;;;;;;;;21.20;99.90;;;;;;4948611;28;20012;-75
2022/07/26 13:22:18;;;;;;;;;;;21.10;99.90;;;;;;4951036;28;19928;-74
2022/07/26 13:24:52;;;;;;;;;;;21.00;99.90;;;;;;4944553;28;19918;-75
2022/07/26 13:27:17;;;;;;;;;;;21.00;99.90;;;;;;4964337;28;19961;-75
2022/07/26 13:29:49;;;;;;;;;;;20.80;99.90;;;;;;4948382;28;19915;-75
2022/07/26 13:32:20;;;;;;;;;;;20.80;99.90;;;;;;4944560;28;19945;-75
2022/07/26 13:34:54;;;;;;;;;;;20.80;99.90;;;;;;4946667;28;19984;-75
2022/07/26 13:37:26;;;;;;;;;;;20.90;99.90;;;;;;4952079;28;19914;-75
2022/07/26 13:39:52;;;;;;;;;;;21.10;99.90;;;;;;4945362;28;21360;-75
2022/07/26 13:42:18;;;;;;;;;;;21.40;99.90;;;;;;4948863;28;19911;-75
2022/07/26 13:44:45;;;;;;;;;;;21.50;99.90;;;;;;4944835;28;19911;-75
2022/07/26 13:47:11;;;;;;;;;;;21.40;99.90;;;;;;4961022;28;20628;-75
2022/07/26 13:49:40;;;;;;;;;;;21.20;99.90;;;;;;4959552;28;19914;-77
2022/07/26 13:52:06;;;;;;;;;;;21.20;99.90;;;;;;4946162;28;20335;-77
2022/07/26 13:54:34;;;;;;;;;;;21.20;99.90;;;;;;4947347;28;19933;-76
2022/07/26 13:57:00;;;;;;;;;;;21.30;99.90;;;;;;4946528;28;20009;-77
2022/07/26 13:59:32;;;;;;;;;;;21.40;99.90;;;;;;4966287;28;19961;-77
2022/07/26 14:02:01;;;;;;;;;;;21.50;99.90;;;;;;4961916;28;20017;-77
2022/07/26 14:04:26;;;;;;;;;;;21.50;99.90;;;;;;4951223;28;19965;-78
2022/07/26 14:06:52;;;;;;;;;;;21.50;99.90;;;;;;4944221;28;19918;-77
2022/07/26 14:09:19;;;;;;;;;;;21.60;99.90;;;;;;4945651;28;19918;-77
2022/07/26 14:11:47;;;;;;;;;;;21.70;99.90;;;;;;4961725;28;19918;-77
2022/07/26 14:14:22;;;;;;;;;;;21.70;99.90;;;;;;4959421;28;19918;-77
2022/07/26 14:16:48;;;;;;;;;;;21.60;99.90;;;;;;4949632;28;20045;-77
2022/07/26 14:19:16;;;;;;;;;;;21.70;99.90;;;;;;4937740;28;19936;-77
2022/07/26 14:21:42;;;;;;;;;;;21.70;99.90;;;;;;4946945;28;19945;-76
2022/07/26 14:24:07;;;;;;;;;;;21.80;99.90;;;;;;4946131;28;20376;-74
2022/07/26 14:26:34;;;;;;;;;;;21.80;99.90;;;;;;4946434;28;20005;-75
2022/07/26 14:29:02;;;;;;;;;;;21.70;99.90;;;;;;4958322;28;19910;-75
2022/07/26 14:31:33;;;;;;;;;;;21.70;99.90;;;;;;4945439;28;19997;-74
2022/07/26 14:34:00;;;;;;;;;;;21.80;99.90;;;;;;4946208;28;19917;-74
2022/07/26 14:36:25;;;;;;;;;;;21.70;99.90;;;;;;4947685;28;20352;-74
2022/07/26 14:38:54;;;;;;;;;;;21.70;99.90;;;;;;4948219;28;19926;-74
2022/07/26 14:41:21;;;;;;;;;;;21.60;99.90;;;;;;4946682;28;19910;-75
2022/07/26 14:43:47;;;;;;;;;;;21.50;99.90;;;;;;4945353;28;20009;-74
2022/07/26 14:46:13;;;;;;;;;;;21.50;99.90;;;;;;4941673;28;19919;-75
2022/07/26 14:48:38;;;;;;;;;;;21.60;99.90;;;;;;4959967;28;19914;-74
2022/07/26 14:51:04;;;;;;;;;;;21.50;99.90;;;;;;4945065;28;19919;-74
2022/07/26 14:53:30;;;;;;;;;;;21.50;99.90;;;;;;4949252;28;19914;-74
2022/07/26 14:55:55;;;;;;;;;;;21.40;99.90;;;;;;4958712;28;20249;-74
2022/07/26 14:58:22;;;;;;;;;;;21.50;99.90;;;;;;4950505;28;19918;-74
2022/07/26 15:00:50;;;;;;;;;;;21.60;99.90;;;;;;4941851;28;19910;-74
2022/07/26 15:03:17;;;;;;;;;;;21.80;99.90;;;;;;4945469;28;19930;-74
2022/07/26 15:05:46;;;;;;;;;;;22.00;99.90;;;;;;4959137;28;19969;-74
2022/07/26 15:08:11;;;;;;;;;;;22.10;99.90;;;;;;4943256;28;19914;-74
2022/07/26 15:10:39;;;;;;;;;;;22.20;99.90;;;;;;4962966;28;20414;-75
2022/07/26 15:13:05;;;;;;;;;;;22.30;99.90;;;;;;4943123;28;20418;-75
2022/07/26 15:15:32;;;;;;;;;;;22.30;99.90;;;;;;4944360;28;19911;-74
2022/07/26 15:17:59;;;;;;;;;;;22.20;99.90;;;;;;4945422;28;20017;-75
2022/07/26 15:20:26;;;;;;;;;;;22.10;99.90;;;;;;4960383;28;19919;-75
2022/07/26 15:22:53;;;;;;;;;;;22.10;99.90;;;;;;4960002;28;20020;-74
2022/07/26 15:25:20;;;;;;;;;;;22.00;99.90;;;;;;4944223;28;20013;-75
2022/07/26 15:27:48;;;;;;;;;;;22.00;99.90;;;;;;4942678;28;19922;-75
2022/07/26 15:30:18;;;;;;;;;;;21.90;99.90;;;;;;4944363;28;20023;-74
2022/07/26 15:32:46;;;;;;;;;;;22.00;99.90;;;;;;4945597;28;19919;-74
2022/07/26 15:35:13;;;;;;;;;;;22.00;99.90;;;;;;4945918;28;20656;-74
2022/07/26 15:37:50;;;;;;;;;;;21.90;99.90;;;;;;4960375;28;19929;-74
2022/07/26 15:40:16;;;;;;;;;;;22.00;99.90;;;;;;4945486;28;19911;-74
2022/07/26 15:42:42;;;;;;;;;;;21.90;99.90;;;;;;4950374;28;19930;-74
2022/07/26 15:45:09;;;;;;;;;;;21.90;99.90;;;;;;4962091;28;19957;-74
2022/07/26 15:47:38;;;;;;;;;;;21.90;99.90;;;;;;4946687;28;19941;-75
2022/07/26 15:50:05;;;;;;;;;;;22.00;99.90;;;;;;4945522;28;20576;-74
2022/07/26 15:52:31;;;;;;;;;;;22.00;99.90;;;;;;4948313;28;20426;-74
2022/07/26 15:54:57;;;;;;;;;;;22.00;99.90;;;;;;4939822;28;19993;-74
2022/07/26 15:57:23;;;;;;;;;;;22.00;99.90;;;;;;4949162;28;19973;-74
2022/07/26 15:59:51;;;;;;;;;;;22.00;99.90;;;;;;4943709;28;19921;-74
2022/07/26 16:02:18;;;;;;;;;;;22.00;99.90;;;;;;4943281;28;19911;-74
2022/07/26 16:04:43;;;;;;;;;;;21.90;99.90;;;;;;4945654;28;19914;-74
2022/07/26 16:07:09;;;;;;;;;;;21.80;99.90;;;;;;4962062;28;19925;-74
2022/07/26 16:09:34;;;;;;;;;;;21.80;99.90;;;;;;4943761;28;19917;-74
2022/07/26 16:12:00;;;;;;;;;;;21.80;99.90;;;;;;4940426;28;19917;-74
2022/07/26 16:14:26;;;;;;;;;;;21.80;99.90;;;;;;4943909;28;19941;-75
2022/07/26 16:16:52;;;;;;;;;;;21.70;99.90;;;;;;4939605;28;19963;-74
2022/07/26 16:19:23;;;;;;;;;;;21.70;99.90;;;;;;4946672;28;19973;-74
2022/07/26 16:21:49;;;;;;;;;;;21.70;99.90;;;;;;4954967;28;19923;-75
2022/07/26 16:24:15;;;;;;;;;;;21.80;99.90;;;;;;4947632;28;19929;-75
2022/07/26 16:26:41;;;;;;;;;;;21.80;99.90;;;;;;4949205;28;20286;-75
2022/07/26 16:29:06;;;;;;;;;;;21.80;99.90;;;;;;4948408;28;19910;-74
2022/07/26 16:31:34;;;;;;;;;;;21.70;99.90;;;;;;4945475;28;19921;-75
2022/07/26 16:34:00;;;;;;;;;;;21.70;99.90;;;;;;4959513;28;19946;-77
2022/07/26 16:36:29;;;;;;;;;;;21.60;99.90;;;;;;4940620;28;19942;-77
2022/07/26 16:38:57;;;;;;;;;;;21.70;99.90;;;;;;4960007;28;19934;-75
2022/07/26 16:41:29;;;;;;;;;;;21.70;99.90;;;;;;4947721;28;20048;-76
2022/07/26 16:44:00;;;;;;;;;;;21.70;99.90;;;;;;4961932;28;19911;-76
2022/07/26 16:46:28;;;;;;;;;;;21.80;99.90;;;;;;4946481;28;19933;-75
2022/07/26 16:48:58;;;;;;;;;;;21.90;99.90;;;;;;4942236;28;19919;-75
2022/07/26 16:51:26;;;;;;;;;;;22.00;99.90;;;;;;4949269;28;19914;-80
2022/07/26 16:53:52;;;;;;;;;;;22.20;99.90;;;;;;4962401;28;19950;-78
2022/07/26 16:56:18;;;;;;;;;;;22.40;99.90;;;;;;4942666;28;19922;-75
2022/07/26 16:58:44;;;;;;;;;;;22.40;99.90;;;;;;4947186;28;19999;-71